sensor_id;sensor_type;location;lat;lon;timestamp;P1;durP1;ratioP1;P2;durP2;ratioP2
39016;SDS011;24784;45.582;5.276;2023-08-31T00:02:09;15.13;;;6.47;;
39016;SDS011;24784;45.582;5.276;2023-08-31T00:04:35;17.08;;;8.23;;
39016;SDS011;24784;45.582;5.276;2023-08-31T00:07:01;16.17;;;7.53;;
39016;SDS011;24784;45.582;5.276;2023-08-31T00:09:27;18.05;;;8.15;;
39016;SDS011;24784;45.582;5.276;2023-08-31T00:11:54;17.00;;;8.23;;
39016;SDS011;24784;45.582;5.276;2023-08-31T00:14:21;16.98;;;7.78;;
39016;SDS011;24784;45.582;5.276;2023-08-31T00:16:47;21.63;;;9.85;;
39016;SDS011;24784;45.582;5.276;2023-08-31T00:19:14;15.75;;;9.50;;
39016;SDS011;24784;45.582;5.276;2023-08-31T00:21:40;22.10;;;9.13;;
39016;SDS011;24784;45.582;5.276;2023-08-31T00:24:06;19.33;;;9.68;;
39016;SDS011;24784;45.582;5.276;2023-08-31T00:26:34;17.38;;;8.63;;
39016;SDS011;24784;45.582;5.276;2023-08-31T00:29:08;17.25;;;9.98;;
39016;SDS011;24784;45.582;5.276;2023-08-31T00:31:35;23.35;;;11.55;;
39016;SDS011;24784;45.582;5.276;2023-08-31T00:34:01;26.90;;;12.25;;
39016;SDS011;24784;45.582;5.276;2023-08-31T00:36:29;23.38;;;10.82;;
39016;SDS011;24784;45.582;5.276;2023-08-31T00:38:58;16.58;;;8.73;;
39016;SDS011;24784;45.582;5.276;2023-08-31T00:41:31;16.70;;;8.00;;
39016;SDS011;24784;45.582;5.276;2023-08-31T00:43:57;17.08;;;8.27;;
39016;SDS011;24784;45.582;5.276;2023-08-31T00:46:23;13.55;;;6.80;;
39016;SDS011;24784;45.582;5.276;2023-08-31T00:48:53;11.98;;;6.40;;
39016;SDS011;24784;45.582;5.276;2023-08-31T00:51:19;11.13;;;6.40;;
39016;SDS011;24784;45.582;5.276;2023-08-31T00:53:45;12.05;;;6.03;;
39016;SDS011;24784;45.582;5.276;2023-08-31T00:56:11;14.32;;;6.80;;
39016;SDS011;24784;45.582;5.276;2023-08-31T00:58:38;16.15;;;8.30;;
39016;SDS011;24784;45.582;5.276;2023-08-31T01:01:11;19.80;;;9.02;;
39016;SDS011;24784;45.582;5.276;2023-08-31T01:12:07;21.23;;;10.77;;
39016;SDS011;24784;45.582;5.276;2023-08-31T01:14:43;18.88;;;9.93;;
39016;SDS011;24784;45.582;5.276;2023-08-31T01:17:15;22.85;;;10.45;;
39016;SDS011;24784;45.582;5.276;2023-08-31T01:19:48;21.23;;;9.40;;
39016;SDS011;24784;45.582;5.276;2023-08-31T01:22:21;14.82;;;7.97;;
39016;SDS011;24784;45.582;5.276;2023-08-31T01:25:02;17.45;;;9.23;;
39016;SDS011;24784;45.582;5.276;2023-08-31T01:27:30;16.52;;;8.63;;
39016;SDS011;24784;45.582;5.276;2023-08-31T01:29:57;14.40;;;8.18;;
39016;SDS011;24784;45.582;5.276;2023-08-31T01:32:23;16.58;;;7.45;;
39016;SDS011;24784;45.582;5.276;2023-08-31T01:34:49;13.73;;;6.70;;
39016;SDS011;24784;45.582;5.276;2023-08-31T01:37:24;10.90;;;6.60;;
39016;SDS011;24784;45.582;5.276;2023-08-31T01:39:56;11.43;;;6.95;;
39016;SDS011;24784;45.582;5.276;2023-08-31T01:42:28;14.43;;;8.23;;
39016;SDS011;24784;45.582;5.276;2023-08-31T01:44:56;14.32;;;7.78;;
39016;SDS011;24784;45.582;5.276;2023-08-31T01:47:23;19.65;;;8.77;;
39016;SDS011;24784;45.582;5.276;2023-08-31T01:49:50;18.10;;;9.15;;
39016;SDS011;24784;45.582;5.276;2023-08-31T01:52:17;19.55;;;9.30;;
39016;SDS011;24784;45.582;5.276;2023-08-31T01:54:43;22.55;;;8.93;;
39016;SDS011;24784;45.582;5.276;2023-08-31T01:57:08;20.10;;;8.30;;
39016;SDS011;24784;45.582;5.276;2023-08-31T01:59:34;18.92;;;8.80;;
39016;SDS011;24784;45.582;5.276;2023-08-31T02:02:00;19.23;;;8.48;;
39016;SDS011;24784;45.582;5.276;2023-08-31T02:04:26;16.63;;;7.82;;
39016;SDS011;24784;45.582;5.276;2023-08-31T02:06:52;15.48;;;8.02;;
39016;SDS011;24784;45.582;5.276;2023-08-31T02:09:18;13.70;;;7.85;;
39016;SDS011;24784;45.582;5.276;2023-08-31T02:11:43;18.92;;;9.55;;
39016;SDS011;24784;45.582;5.276;2023-08-31T02:14:09;23.23;;;8.77;;
39016;SDS011;24784;45.582;5.276;2023-08-31T02:16:35;25.42;;;9.93;;
39016;SDS011;24784;45.582;5.276;2023-08-31T02:19:00;14.55;;;8.00;;
39016;SDS011;24784;45.582;5.276;2023-08-31T02:21:26;14.48;;;8.00;;
39016;SDS011;24784;45.582;5.276;2023-08-31T02:23:52;19.85;;;8.90;;
39016;SDS011;24784;45.582;5.276;2023-08-31T02:26:17;20.17;;;9.50;;
39016;SDS011;24784;45.582;5.276;2023-08-31T02:28:43;18.92;;;8.63;;
39016;SDS011;24784;45.582;5.276;2023-08-31T02:31:09;14.68;;;8.38;;
39016;SDS011;24784;45.582;5.276;2023-08-31T02:33:36;16.88;;;9.27;;
39016;SDS011;24784;45.582;5.276;2023-08-31T02:36:02;20.75;;;9.52;;
39016;SDS011;24784;45.582;5.276;2023-08-31T02:38:28;19.10;;;8.88;;
39016;SDS011;24784;45.582;5.276;2023-08-31T02:40:53;24.75;;;10.38;;
39016;SDS011;24784;45.582;5.276;2023-08-31T02:43:19;18.27;;;9.48;;
39016;SDS011;24784;45.582;5.276;2023-08-31T02:45:45;21.38;;;10.32;;
39016;SDS011;24784;45.582;5.276;2023-08-31T02:48:11;18.17;;;8.40;;
39016;SDS011;24784;45.582;5.276;2023-08-31T02:50:37;18.70;;;9.30;;
39016;SDS011;24784;45.582;5.276;2023-08-31T02:53:03;21.30;;;9.85;;
39016;SDS011;24784;45.582;5.276;2023-08-31T02:55:32;21.27;;;9.32;;
39016;SDS011;24784;45.582;5.276;2023-08-31T02:57:58;21.95;;;10.93;;
39016;SDS011;24784;45.582;5.276;2023-08-31T03:00:24;16.38;;;8.85;;
39016;SDS011;24784;45.582;5.276;2023-08-31T03:02:49;23.77;;;11.05;;
39016;SDS011;24784;45.582;5.276;2023-08-31T03:05:18;25.20;;;10.10;;
39016;SDS011;24784;45.582;5.276;2023-08-31T03:07:46;19.10;;;9.70;;
39016;SDS011;24784;45.582;5.276;2023-08-31T03:10:12;19.02;;;8.55;;
39016;SDS011;24784;45.582;5.276;2023-08-31T03:12:38;20.10;;;9.85;;
39016;SDS011;24784;45.582;5.276;2023-08-31T03:15:05;24.40;;;9.27;;
39016;SDS011;24784;45.582;5.276;2023-08-31T03:17:32;18.75;;;9.38;;
39016;SDS011;24784;45.582;5.276;2023-08-31T03:19:57;18.77;;;9.77;;
39016;SDS011;24784;45.582;5.276;2023-08-31T03:22:23;18.75;;;8.63;;
39016;SDS011;24784;45.582;5.276;2023-08-31T03:24:49;15.10;;;7.30;;
39016;SDS011;24784;45.582;5.276;2023-08-31T03:27:14;10.65;;;6.43;;
39016;SDS011;24784;45.582;5.276;2023-08-31T03:29:44;11.10;;;5.97;;
39016;SDS011;24784;45.582;5.276;2023-08-31T03:32:10;10.73;;;6.00;;
39016;SDS011;24784;45.582;5.276;2023-08-31T03:34:35;12.40;;;6.05;;
39016;SDS011;24784;45.582;5.276;2023-08-31T03:37:01;10.20;;;5.20;;
39016;SDS011;24784;45.582;5.276;2023-08-31T03:39:26;12.15;;;5.63;;
39016;SDS011;24784;45.582;5.276;2023-08-31T03:41:52;11.82;;;5.30;;
39016;SDS011;24784;45.582;5.276;2023-08-31T03:44:18;10.90;;;5.38;;
39016;SDS011;24784;45.582;5.276;2023-08-31T03:46:45;10.43;;;4.40;;
39016;SDS011;24784;45.582;5.276;2023-08-31T03:49:10;10.30;;;6.05;;
39016;SDS011;24784;45.582;5.276;2023-08-31T03:51:36;8.80;;;5.05;;
39016;SDS011;24784;45.582;5.276;2023-08-31T03:54:02;10.35;;;5.05;;
39016;SDS011;24784;45.582;5.276;2023-08-31T03:56:27;7.78;;;4.80;;
39016;SDS011;24784;45.582;5.276;2023-08-31T03:58:53;12.18;;;4.88;;
39016;SDS011;24784;45.582;5.276;2023-08-31T04:01:19;11.93;;;4.93;;
39016;SDS011;24784;45.582;5.276;2023-08-31T04:03:45;7.75;;;4.40;;
39016;SDS011;24784;45.582;5.276;2023-08-31T04:06:10;6.75;;;4.38;;
39016;SDS011;24784;45.582;5.276;2023-08-31T04:08:36;9.52;;;4.85;;
39016;SDS011;24784;45.582;5.276;2023-08-31T04:11:01;8.55;;;4.50;;
39016;SDS011;24784;45.582;5.276;2023-08-31T04:13:28;7.75;;;4.90;;
39016;SDS011;24784;45.582;5.276;2023-08-31T04:15:54;7.45;;;4.50;;
39016;SDS011;24784;45.582;5.276;2023-08-31T04:18:20;10.32;;;4.70;;
39016;SDS011;24784;45.582;5.276;2023-08-31T04:20:49;10.65;;;4.95;;
39016;SDS011;24784;45.582;5.276;2023-08-31T04:23:17;6.20;;;4.57;;
39016;SDS011;24784;45.582;5.276;2023-08-31T04:25:43;10.23;;;4.35;;
39016;SDS011;24784;45.582;5.276;2023-08-31T04:28:09;8.77;;;4.30;;
39016;SDS011;24784;45.582;5.276;2023-08-31T04:30:35;11.20;;;4.53;;
39016;SDS011;24784;45.582;5.276;2023-08-31T04:33:00;7.35;;;4.47;;
39016;SDS011;24784;45.582;5.276;2023-08-31T04:35:26;10.10;;;4.85;;
39016;SDS011;24784;45.582;5.276;2023-08-31T04:37:52;7.45;;;3.92;;
39016;SDS011;24784;45.582;5.276;2023-08-31T04:40:17;8.52;;;4.97;;
39016;SDS011;24784;45.582;5.276;2023-08-31T04:42:43;7.97;;;4.80;;
39016;SDS011;24784;45.582;5.276;2023-08-31T04:45:09;8.60;;;4.70;;
39016;SDS011;24784;45.582;5.276;2023-08-31T04:47:36;7.80;;;4.70;;
39016;SDS011;24784;45.582;5.276;2023-08-31T04:50:02;6.72;;;5.05;;
39016;SDS011;24784;45.582;5.276;2023-08-31T04:52:28;10.15;;;4.60;;
39016;SDS011;24784;45.582;5.276;2023-08-31T04:54:54;12.05;;;4.75;;
39016;SDS011;24784;45.582;5.276;2023-08-31T04:57:19;8.57;;;5.07;;
39016;SDS011;24784;45.582;5.276;2023-08-31T04:59:46;8.65;;;4.72;;
39016;SDS011;24784;45.582;5.276;2023-08-31T05:02:11;6.75;;;4.30;;
39016;SDS011;24784;45.582;5.276;2023-08-31T05:04:37;8.35;;;4.53;;
39016;SDS011;24784;45.582;5.276;2023-08-31T05:07:03;9.40;;;4.10;;
39016;SDS011;24784;45.582;5.276;2023-08-31T05:09:29;7.05;;;4.07;;
39016;SDS011;24784;45.582;5.276;2023-08-31T05:11:57;7.45;;;4.30;;
39016;SDS011;24784;45.582;5.276;2023-08-31T05:14:24;9.85;;;4.43;;
39016;SDS011;24784;45.582;5.276;2023-08-31T05:16:50;10.13;;;4.35;;
39016;SDS011;24784;45.582;5.276;2023-08-31T05:19:16;12.45;;;4.40;;
39016;SDS011;24784;45.582;5.276;2023-08-31T05:21:42;5.53;;;4.00;;
39016;SDS011;24784;45.582;5.276;2023-08-31T05:24:07;7.60;;;3.95;;
39016;SDS011;24784;45.582;5.276;2023-08-31T05:26:33;4.88;;;4.00;;
39016;SDS011;24784;45.582;5.276;2023-08-31T05:28:59;5.85;;;4.20;;
39016;SDS011;24784;45.582;5.276;2023-08-31T05:31:25;5.43;;;3.72;;
39016;SDS011;24784;45.582;5.276;2023-08-31T05:33:50;6.85;;;3.60;;
39016;SDS011;24784;45.582;5.276;2023-08-31T05:36:16;8.93;;;3.90;;
39016;SDS011;24784;45.582;5.276;2023-08-31T05:38:42;9.98;;;4.00;;
39016;SDS011;24784;45.582;5.276;2023-08-31T05:41:08;7.57;;;3.75;;
39016;SDS011;24784;45.582;5.276;2023-08-31T05:43:34;7.10;;;4.07;;
39016;SDS011;24784;45.582;5.276;2023-08-31T05:46:01;8.50;;;3.58;;
39016;SDS011;24784;45.582;5.276;2023-08-31T05:48:27;8.32;;;3.75;;
39016;SDS011;24784;45.582;5.276;2023-08-31T05:50:53;4.85;;;3.45;;
39016;SDS011;24784;45.582;5.276;2023-08-31T05:53:20;7.65;;;4.00;;
39016;SDS011;24784;45.582;5.276;2023-08-31T05:55:46;8.00;;;3.45;;
39016;SDS011;24784;45.582;5.276;2023-08-31T05:58:12;11.13;;;4.47;;
39016;SDS011;24784;45.582;5.276;2023-08-31T06:00:37;7.10;;;4.05;;
39016;SDS011;24784;45.582;5.276;2023-08-31T06:03:03;8.13;;;4.30;;
39016;SDS011;24784;45.582;5.276;2023-08-31T06:05:30;5.43;;;3.47;;
39016;SDS011;24784;45.582;5.276;2023-08-31T06:07:57;7.47;;;3.75;;
39016;SDS011;24784;45.582;5.276;2023-08-31T06:10:23;9.40;;;4.30;;
39016;SDS011;24784;45.582;5.276;2023-08-31T06:12:50;6.65;;;4.20;;
39016;SDS011;24784;45.582;5.276;2023-08-31T06:15:18;8.00;;;4.30;;
39016;SDS011;24784;45.582;5.276;2023-08-31T06:17:44;6.22;;;4.03;;
39016;SDS011;24784;45.582;5.276;2023-08-31T06:20:10;11.48;;;4.20;;
39016;SDS011;24784;45.582;5.276;2023-08-31T06:22:36;6.22;;;3.88;;
39016;SDS011;24784;45.582;5.276;2023-08-31T06:25:02;9.57;;;4.50;;
39016;SDS011;24784;45.582;5.276;2023-08-31T06:27:31;7.20;;;4.32;;
39016;SDS011;24784;45.582;5.276;2023-08-31T06:29:57;9.50;;;4.30;;
39016;SDS011;24784;45.582;5.276;2023-08-31T06:32:25;5.85;;;3.83;;
39016;SDS011;24784;45.582;5.276;2023-08-31T06:34:52;10.40;;;4.70;;
39016;SDS011;24784;45.582;5.276;2023-08-31T06:37:18;5.10;;;3.85;;
39016;SDS011;24784;45.582;5.276;2023-08-31T06:39:45;7.63;;;4.47;;
39016;SDS011;24784;45.582;5.276;2023-08-31T06:42:11;11.88;;;5.82;;
39016;SDS011;24784;45.582;5.276;2023-08-31T06:44:36;9.80;;;5.00;;
39016;SDS011;24784;45.582;5.276;2023-08-31T06:47:02;8.70;;;4.10;;
39016;SDS011;24784;45.582;5.276;2023-08-31T06:49:28;13.18;;;4.70;;
39016;SDS011;24784;45.582;5.276;2023-08-31T06:51:55;7.40;;;4.30;;
39016;SDS011;24784;45.582;5.276;2023-08-31T06:54:20;9.02;;;5.20;;
39016;SDS011;24784;45.582;5.276;2023-08-31T06:56:46;8.52;;;5.28;;
39016;SDS011;24784;45.582;5.276;2023-08-31T06:59:12;6.63;;;4.53;;
39016;SDS011;24784;45.582;5.276;2023-08-31T07:01:38;10.18;;;4.45;;
39016;SDS011;24784;45.582;5.276;2023-08-31T07:04:03;8.18;;;4.43;;
39016;SDS011;24784;45.582;5.276;2023-08-31T07:06:29;6.63;;;4.35;;
39016;SDS011;24784;45.582;5.276;2023-08-31T07:08:56;5.25;;;4.10;;
39016;SDS011;24784;45.582;5.276;2023-08-31T07:11:22;7.30;;;4.65;;
39016;SDS011;24784;45.582;5.276;2023-08-31T07:13:48;8.02;;;4.00;;
39016;SDS011;24784;45.582;5.276;2023-08-31T07:16:14;8.20;;;4.45;;
39016;SDS011;24784;45.582;5.276;2023-08-31T07:18:39;7.60;;;5.05;;
39016;SDS011;24784;45.582;5.276;2023-08-31T07:21:05;7.00;;;4.78;;
39016;SDS011;24784;45.582;5.276;2023-08-31T07:23:30;6.97;;;4.18;;
39016;SDS011;24784;45.582;5.276;2023-08-31T07:25:59;6.95;;;4.43;;
39016;SDS011;24784;45.582;5.276;2023-08-31T07:28:25;12.98;;;5.13;;
39016;SDS011;24784;45.582;5.276;2023-08-31T07:31:04;11.10;;;5.13;;
39016;SDS011;24784;45.582;5.276;2023-08-31T07:33:31;6.80;;;4.70;;
39016;SDS011;24784;45.582;5.276;2023-08-31T07:35:59;14.82;;;5.18;;
39016;SDS011;24784;45.582;5.276;2023-08-31T07:38:26;6.57;;;5.00;;
39016;SDS011;24784;45.582;5.276;2023-08-31T07:40:52;8.07;;;5.15;;
39016;SDS011;24784;45.582;5.276;2023-08-31T07:43:18;10.23;;;5.40;;
39016;SDS011;24784;45.582;5.276;2023-08-31T07:45:44;7.03;;;4.85;;
39016;SDS011;24784;45.582;5.276;2023-08-31T07:48:10;9.23;;;4.75;;
39016;SDS011;24784;45.582;5.276;2023-08-31T07:50:35;10.23;;;4.60;;
39016;SDS011;24784;45.582;5.276;2023-08-31T07:53:01;6.72;;;4.40;;
39016;SDS011;24784;45.582;5.276;2023-08-31T07:55:28;5.72;;;4.00;;
39016;SDS011;24784;45.582;5.276;2023-08-31T07:57:54;9.20;;;4.43;;
39016;SDS011;24784;45.582;5.276;2023-08-31T08:00:19;9.25;;;4.60;;
39016;SDS011;24784;45.582;5.276;2023-08-31T08:02:45;8.32;;;4.55;;
39016;SDS011;24784;45.582;5.276;2023-08-31T08:05:11;7.15;;;3.90;;
39016;SDS011;24784;45.582;5.276;2023-08-31T08:07:37;7.30;;;4.63;;
39016;SDS011;24784;45.582;5.276;2023-08-31T08:10:03;7.38;;;4.82;;
39016;SDS011;24784;45.582;5.276;2023-08-31T08:12:36;7.00;;;4.20;;
39016;SDS011;24784;45.582;5.276;2023-08-31T08:15:06;10.50;;;3.72;;
39016;SDS011;24784;45.582;5.276;2023-08-31T08:17:33;4.90;;;3.63;;
39016;SDS011;24784;45.582;5.276;2023-08-31T08:19:58;5.68;;;3.45;;
39016;SDS011;24784;45.582;5.276;2023-08-31T08:22:24;5.88;;;3.05;;
39016;SDS011;24784;45.582;5.276;2023-08-31T08:24:50;9.48;;;3.28;;
39016;SDS011;24784;45.582;5.276;2023-08-31T08:27:16;10.25;;;5.15;;
39016;SDS011;24784;45.582;5.276;2023-08-31T08:29:45;5.25;;;3.40;;
39016;SDS011;24784;45.582;5.276;2023-08-31T08:32:11;6.95;;;2.88;;
39016;SDS011;24784;45.582;5.276;2023-08-31T08:34:37;3.53;;;2.13;;
39016;SDS011;24784;45.582;5.276;2023-08-31T08:37:03;4.90;;;2.70;;
39016;SDS011;24784;45.582;5.276;2023-08-31T08:39:29;4.00;;;2.03;;
39016;SDS011;24784;45.582;5.276;2023-08-31T08:41:57;4.10;;;1.83;;
39016;SDS011;24784;45.582;5.276;2023-08-31T08:44:24;6.55;;;2.35;;
39016;SDS011;24784;45.582;5.276;2023-08-31T08:46:51;9.05;;;2.80;;
39016;SDS011;24784;45.582;5.276;2023-08-31T08:49:18;9.07;;;2.22;;
39016;SDS011;24784;45.582;5.276;2023-08-31T08:51:44;7.63;;;2.70;;
39016;SDS011;24784;45.582;5.276;2023-08-31T08:54:16;6.07;;;2.38;;
39016;SDS011;24784;45.582;5.276;2023-08-31T08:56:43;6.78;;;2.35;;
39016;SDS011;24784;45.582;5.276;2023-08-31T08:59:08;3.58;;;2.30;;
39016;SDS011;24784;45.582;5.276;2023-08-31T09:01:38;8.68;;;2.40;;
39016;SDS011;24784;45.582;5.276;2023-08-31T09:04:04;7.82;;;2.53;;
39016;SDS011;24784;45.582;5.276;2023-08-31T09:06:31;8.35;;;2.75;;
39016;SDS011;24784;45.582;5.276;2023-08-31T09:08:57;5.85;;;4.00;;
39016;SDS011;24784;45.582;5.276;2023-08-31T09:11:23;7.40;;;3.08;;
39016;SDS011;24784;45.582;5.276;2023-08-31T09:13:50;9.75;;;3.80;;
39016;SDS011;24784;45.582;5.276;2023-08-31T09:16:25;4.47;;;2.45;;
39016;SDS011;24784;45.582;5.276;2023-08-31T09:18:53;5.88;;;2.63;;
39016;SDS011;24784;45.582;5.276;2023-08-31T09:21:20;6.20;;;2.05;;
39016;SDS011;24784;45.582;5.276;2023-08-31T09:23:58;8.43;;;2.25;;
39016;SDS011;24784;45.582;5.276;2023-08-31T09:26:24;7.57;;;2.67;;
39016;SDS011;24784;45.582;5.276;2023-08-31T09:28:50;6.53;;;2.10;;
39016;SDS011;24784;45.582;5.276;2023-08-31T09:31:16;7.68;;;3.03;;
39016;SDS011;24784;45.582;5.276;2023-08-31T09:33:51;7.25;;;2.13;;
39016;SDS011;24784;45.582;5.276;2023-08-31T09:36:18;7.13;;;2.65;;
39016;SDS011;24784;45.582;5.276;2023-08-31T09:38:45;6.65;;;2.45;;
39016;SDS011;24784;45.582;5.276;2023-08-31T09:41:11;8.07;;;2.30;;
39016;SDS011;24784;45.582;5.276;2023-08-31T09:43:37;3.60;;;2.17;;
39016;SDS011;24784;45.582;5.276;2023-08-31T09:46:03;7.60;;;2.47;;
39016;SDS011;24784;45.582;5.276;2023-08-31T09:48:30;15.25;;;2.63;;
39016;SDS011;24784;45.582;5.276;2023-08-31T09:50:57;6.32;;;2.40;;
39016;SDS011;24784;45.582;5.276;2023-08-31T09:53:25;3.67;;;2.10;;
39016;SDS011;24784;45.582;5.276;2023-08-31T09:55:54;3.67;;;2.35;;
39016;SDS011;24784;45.582;5.276;2023-08-31T09:58:21;9.27;;;2.60;;
39016;SDS011;24784;45.582;5.276;2023-08-31T10:00:50;9.50;;;2.38;;
39016;SDS011;24784;45.582;5.276;2023-08-31T10:03:17;7.55;;;2.00;;
39016;SDS011;24784;45.582;5.276;2023-08-31T10:05:46;4.55;;;2.30;;
39016;SDS011;24784;45.582;5.276;2023-08-31T10:08:13;4.63;;;2.05;;
39016;SDS011;24784;45.582;5.276;2023-08-31T10:10:40;4.88;;;2.80;;
39016;SDS011;24784;45.582;5.276;2023-08-31T10:13:06;7.38;;;2.60;;
39016;SDS011;24784;45.582;5.276;2023-08-31T10:15:32;8.73;;;2.30;;
39016;SDS011;24784;45.582;5.276;2023-08-31T10:18:00;10.23;;;2.40;;
39016;SDS011;24784;45.582;5.276;2023-08-31T10:20:27;7.38;;;2.50;;
39016;SDS011;24784;45.582;5.276;2023-08-31T10:22:56;10.45;;;2.70;;
39016;SDS011;24784;45.582;5.276;2023-08-31T10:31:02;6.10;;;2.30;;
39016;SDS011;24784;45.582;5.276;2023-08-31T10:33:30;6.28;;;2.50;;
39016;SDS011;24784;45.582;5.276;2023-08-31T10:36:08;10.52;;;2.65;;
39016;SDS011;24784;45.582;5.276;2023-08-31T10:38:38;8.20;;;3.13;;
39016;SDS011;24784;45.582;5.276;2023-08-31T10:43:54;6.93;;;3.08;;
39016;SDS011;24784;45.582;5.276;2023-08-31T10:51:39;4.93;;;2.42;;
39016;SDS011;24784;45.582;5.276;2023-08-31T10:54:05;7.53;;;2.78;;
39016;SDS011;24784;45.582;5.276;2023-08-31T10:59:22;4.53;;;2.13;;
39016;SDS011;24784;45.582;5.276;2023-08-31T11:04:29;9.10;;;2.60;;
39016;SDS011;24784;45.582;5.276;2023-08-31T11:09:44;6.55;;;2.45;;
39016;SDS011;24784;45.582;5.276;2023-08-31T11:12:11;5.63;;;2.40;;
39016;SDS011;24784;45.582;5.276;2023-08-31T11:14:38;3.58;;;2.35;;
39016;SDS011;24784;45.582;5.276;2023-08-31T11:17:04;5.63;;;2.25;;
39016;SDS011;24784;45.582;5.276;2023-08-31T11:19:34;6.03;;;2.80;;
39016;SDS011;24784;45.582;5.276;2023-08-31T11:22:01;6.43;;;3.13;;
39016;SDS011;24784;45.582;5.276;2023-08-31T11:24:28;6.60;;;2.67;;
39016;SDS011;24784;45.582;5.276;2023-08-31T11:26:57;9.00;;;2.88;;
39016;SDS011;24784;45.582;5.276;2023-08-31T11:29:23;6.03;;;2.20;;
39016;SDS011;24784;45.582;5.276;2023-08-31T11:31:49;5.07;;;2.50;;
39016;SDS011;24784;45.582;5.276;2023-08-31T11:34:15;8.05;;;2.53;;
39016;SDS011;24784;45.582;5.276;2023-08-31T11:36:42;7.13;;;2.88;;
39016;SDS011;24784;45.582;5.276;2023-08-31T11:39:09;6.35;;;2.95;;
39016;SDS011;24784;45.582;5.276;2023-08-31T11:41:36;6.60;;;2.47;;
39016;SDS011;24784;45.582;5.276;2023-08-31T11:44:07;5.88;;;2.50;;
39016;SDS011;24784;45.582;5.276;2023-08-31T11:46:34;4.38;;;2.30;;
39016;SDS011;24784;45.582;5.276;2023-08-31T11:49:01;6.43;;;3.00;;
39016;SDS011;24784;45.582;5.276;2023-08-31T11:51:29;4.15;;;2.42;;
39016;SDS011;24784;45.582;5.276;2023-08-31T11:53:57;5.30;;;2.20;;
39016;SDS011;24784;45.582;5.276;2023-08-31T11:56:24;4.50;;;2.88;;
39016;SDS011;24784;45.582;5.276;2023-08-31T11:58:50;6.05;;;2.30;;
39016;SDS011;24784;45.582;5.276;2023-08-31T12:01:20;8.30;;;2.50;;
39016;SDS011;24784;45.582;5.276;2023-08-31T12:03:46;6.28;;;2.10;;
39016;SDS011;24784;45.582;5.276;2023-08-31T12:06:16;3.70;;;2.30;;
39016;SDS011;24784;45.582;5.276;2023-08-31T12:08:43;6.07;;;2.40;;
39016;SDS011;24784;45.582;5.276;2023-08-31T12:11:09;8.95;;;2.55;;
39016;SDS011;24784;45.582;5.276;2023-08-31T12:13:34;4.63;;;2.50;;
39016;SDS011;24784;45.582;5.276;2023-08-31T12:16:00;6.60;;;2.30;;
39016;SDS011;24784;45.582;5.276;2023-08-31T12:18:32;3.83;;;2.10;;
39016;SDS011;24784;45.582;5.276;2023-08-31T12:21:02;4.72;;;2.22;;
39016;SDS011;24784;45.582;5.276;2023-08-31T12:23:29;3.05;;;2.10;;
39016;SDS011;24784;45.582;5.276;2023-08-31T12:25:55;4.82;;;2.40;;
39016;SDS011;24784;45.582;5.276;2023-08-31T12:28:21;6.53;;;2.40;;
39016;SDS011;24784;45.582;5.276;2023-08-31T12:30:49;5.72;;;2.33;;
39016;SDS011;24784;45.582;5.276;2023-08-31T12:33:15;3.17;;;2.30;;
39016;SDS011;24784;45.582;5.276;2023-08-31T12:35:41;5.55;;;2.13;;
39016;SDS011;24784;45.582;5.276;2023-08-31T12:38:06;8.50;;;2.38;;
39016;SDS011;24784;45.582;5.276;2023-08-31T12:40:32;5.07;;;1.83;;
39016;SDS011;24784;45.582;5.276;2023-08-31T12:42:58;5.18;;;1.80;;
39016;SDS011;24784;45.582;5.276;2023-08-31T12:45:23;2.85;;;1.90;;
39016;SDS011;24784;45.582;5.276;2023-08-31T12:47:49;3.88;;;2.00;;
39016;SDS011;24784;45.582;5.276;2023-08-31T12:50:15;3.67;;;2.22;;
39016;SDS011;24784;45.582;5.276;2023-08-31T12:52:40;6.25;;;2.05;;
39016;SDS011;24784;45.582;5.276;2023-08-31T12:55:11;3.45;;;1.80;;
39016;SDS011;24784;45.582;5.276;2023-08-31T12:57:37;5.90;;;2.33;;
39016;SDS011;24784;45.582;5.276;2023-08-31T13:00:03;4.45;;;2.05;;
39016;SDS011;24784;45.582;5.276;2023-08-31T13:02:36;3.95;;;2.17;;
39016;SDS011;24784;45.582;5.276;2023-08-31T13:05:02;2.22;;;1.85;;
39016;SDS011;24784;45.582;5.276;2023-08-31T13:07:28;4.05;;;1.70;;
39016;SDS011;24784;45.582;5.276;2023-08-31T13:09:54;7.05;;;2.00;;
39016;SDS011;24784;45.582;5.276;2023-08-31T13:12:19;3.95;;;2.30;;
39016;SDS011;24784;45.582;5.276;2023-08-31T13:14:45;3.20;;;1.80;;
39016;SDS011;24784;45.582;5.276;2023-08-31T13:17:11;4.55;;;1.90;;
39016;SDS011;24784;45.582;5.276;2023-08-31T13:19:36;4.82;;;2.50;;
39016;SDS011;24784;45.582;5.276;2023-08-31T13:22:02;5.15;;;2.03;;
39016;SDS011;24784;45.582;5.276;2023-08-31T13:24:28;5.72;;;1.92;;
39016;SDS011;24784;45.582;5.276;2023-08-31T13:26:54;3.13;;;1.88;;
39016;SDS011;24784;45.582;5.276;2023-08-31T13:29:20;5.95;;;1.63;;
39016;SDS011;24784;45.582;5.276;2023-08-31T13:31:45;8.75;;;1.95;;
39016;SDS011;24784;45.582;5.276;2023-08-31T13:34:11;2.40;;;1.90;;
39016;SDS011;24784;45.582;5.276;2023-08-31T13:36:38;6.78;;;1.88;;
39016;SDS011;24784;45.582;5.276;2023-08-31T13:39:04;4.63;;;1.88;;
39016;SDS011;24784;45.582;5.276;2023-08-31T13:41:29;4.53;;;1.85;;
39016;SDS011;24784;45.582;5.276;2023-08-31T13:43:55;3.50;;;1.85;;
39016;SDS011;24784;45.582;5.276;2023-08-31T13:46:21;3.17;;;2.00;;
39016;SDS011;24784;45.582;5.276;2023-08-31T13:48:46;3.22;;;1.70;;
39016;SDS011;24784;45.582;5.276;2023-08-31T13:51:13;3.92;;;1.90;;
39016;SDS011;24784;45.582;5.276;2023-08-31T13:53:39;3.60;;;1.90;;
39016;SDS011;24784;45.582;5.276;2023-08-31T13:56:04;3.72;;;1.98;;
39016;SDS011;24784;45.582;5.276;2023-08-31T13:58:30;3.97;;;1.85;;
39016;SDS011;24784;45.582;5.276;2023-08-31T14:00:55;4.38;;;1.80;;
39016;SDS011;24784;45.582;5.276;2023-08-31T14:03:21;4.47;;;1.75;;
39016;SDS011;24784;45.582;5.276;2023-08-31T14:05:48;3.88;;;1.95;;
39016;SDS011;24784;45.582;5.276;2023-08-31T14:08:14;4.10;;;1.95;;
39016;SDS011;24784;45.582;5.276;2023-08-31T14:10:40;6.53;;;1.73;;
39016;SDS011;24784;45.582;5.276;2023-08-31T14:13:06;7.18;;;2.08;;
39016;SDS011;24784;45.582;5.276;2023-08-31T14:15:32;5.43;;;1.50;;
39016;SDS011;24784;45.582;5.276;2023-08-31T14:17:58;2.95;;;1.70;;
39016;SDS011;24784;45.582;5.276;2023-08-31T14:20:23;5.18;;;2.78;;
39016;SDS011;24784;45.582;5.276;2023-08-31T14:22:49;5.18;;;1.70;;
39016;SDS011;24784;45.582;5.276;2023-08-31T14:25:15;2.55;;;1.90;;
39016;SDS011;24784;45.582;5.276;2023-08-31T14:27:42;2.80;;;1.48;;
39016;SDS011;24784;45.582;5.276;2023-08-31T14:30:08;2.38;;;1.60;;
39016;SDS011;24784;45.582;5.276;2023-08-31T14:32:34;8.68;;;1.77;;
39016;SDS011;24784;45.582;5.276;2023-08-31T14:35:00;3.05;;;2.00;;
39016;SDS011;24784;45.582;5.276;2023-08-31T14:37:26;2.67;;;1.60;;
39016;SDS011;24784;45.582;5.276;2023-08-31T14:39:51;3.75;;;2.00;;
39016;SDS011;24784;45.582;5.276;2023-08-31T14:42:17;2.40;;;1.52;;
39016;SDS011;24784;45.582;5.276;2023-08-31T14:44:46;4.80;;;1.70;;
39016;SDS011;24784;45.582;5.276;2023-08-31T14:47:12;6.07;;;1.50;;
39016;SDS011;24784;45.582;5.276;2023-08-31T14:49:41;4.97;;;1.67;;
39016;SDS011;24784;45.582;5.276;2023-08-31T14:52:06;2.00;;;1.60;;
39016;SDS011;24784;45.582;5.276;2023-08-31T14:54:35;6.63;;;1.90;;
39016;SDS011;24784;45.582;5.276;2023-08-31T14:57:01;2.50;;;1.65;;
39016;SDS011;24784;45.582;5.276;2023-08-31T14:59:31;4.78;;;1.58;;
39016;SDS011;24784;45.582;5.276;2023-08-31T15:01:56;2.55;;;1.50;;
39016;SDS011;24784;45.582;5.276;2023-08-31T15:04:22;4.65;;;1.48;;
39016;SDS011;24784;45.582;5.276;2023-08-31T15:06:48;2.80;;;1.80;;
39016;SDS011;24784;45.582;5.276;2023-08-31T15:09:14;2.28;;;1.50;;
39016;SDS011;24784;45.582;5.276;2023-08-31T15:11:40;4.03;;;1.77;;